Time;durP1;ratioP1;P1;durP2;ratioP2;P2;SDS_P1;SDS_P2;PMS_P1;PMS_P2;Temp;Humidity;BMP_temperature;BMP_pressure;BME280_temperature;BME280_humidity;BME280_pressure;Samples;Min_cycle;Max_cycle;Signal;HPM_P1;HPM_P2
2022/11/16 00:00:59;;;;;;;38.30;19.77;;;;;;;;;;5112845;28;20071;-73
2022/11/16 00:03:26;;;;;;;38.20;19.67;;;;;;;;;;5112732;28;20071;-73
2022/11/16 00:05:58;;;;;;;39.33;19.45;;;;;;;;;;5112857;28;20542;-73
2022/11/16 00:08:25;;;;;;;35.50;19.75;;;;;;;;;;5112734;28;20063;-73
2022/11/16 00:10:53;;;;;;;35.67;18.60;;;;;;;;;;5112578;28;20150;-73
2022/11/16 00:13:20;;;;;;;42.67;19.80;;;;;;;;;;5112709;28;20128;-73
2022/11/16 00:15:57;;;;;;;36.17;17.98;;;;;;;;;;5112641;28;20374;-73
2022/11/16 00:18:24;;;;;;;36.00;18.50;;;;;;;;;;5112584;28;20043;-73
2022/11/16 00:20:51;;;;;;;40.05;19.50;;;;;;;;;;5112826;28;20064;-73
2022/11/16 00:23:19;;;;;;;38.67;18.75;;;;;;;;;;5112646;28;20042;-73
2022/11/16 00:25:46;;;;;;;39.63;18.80;;;;;;;;;;5112971;28;20118;-73
2022/11/16 00:28:14;;;;;;;38.53;20.60;;;;;;;;;;5112560;28;20043;-73
2022/11/16 00:30:41;;;;;;;40.03;19.00;;;;;;;;;;5112709;28;20036;-74
2022/11/16 00:33:12;;;;;;;37.20;18.95;;;;;;;;;;5114855;28;20047;-73
2022/11/16 00:35:40;;;;;;;34.80;17.67;;;;;;;;;;5114997;28;20443;-73
2022/11/16 00:38:07;;;;;;;38.72;18.85;;;;;;;;;;5114876;28;20138;-74
2022/11/16 00:40:35;;;;;;;39.90;19.60;;;;;;;;;;5114930;28;20047;-73
2022/11/16 00:43:02;;;;;;;35.53;18.45;;;;;;;;;;5114978;28;20075;-73
2022/11/16 00:45:30;;;;;;;41.47;19.88;;;;;;;;;;5116219;28;20035;-74
2022/11/16 00:47:57;;;;;;;38.45;19.27;;;;;;;;;;5116148;28;20443;-73
2022/11/16 00:50:27;;;;;;;39.05;19.45;;;;;;;;;;5114684;28;20039;-74
2022/11/16 00:52:55;;;;;;;40.72;19.88;;;;;;;;;;5114906;28;20048;-73
2022/11/16 00:55:23;;;;;;;44.47;20.40;;;;;;;;;;5114676;28;20043;-73
2022/11/16 00:57:50;;;;;;;42.08;20.65;;;;;;;;;;5097786;28;20043;-74
2022/11/16 01:00:20;;;;;;;38.10;19.75;;;;;;;;;;5114524;28;20085;-74
2022/11/16 01:02:47;;;;;;;38.92;18.70;;;;;;;;;;5115685;28;20047;-73
2022/11/16 01:05:14;;;;;;;37.58;18.63;;;;;;;;;;5114483;28;20059;-74
2022/11/16 01:07:42;;;;;;;38.50;18.95;;;;;;;;;;5114551;28;20048;-73
2022/11/16 01:10:14;;;;;;;39.05;19.38;;;;;;;;;;5114324;28;20043;-73
2022/11/16 01:12:42;;;;;;;40.05;19.13;;;;;;;;;;5115387;28;20089;-74
2022/11/16 01:15:09;;;;;;;37.63;19.02;;;;;;;;;;5115778;28;20445;-73
2022/11/16 01:17:38;;;;;;;38.70;19.20;;;;;;;;;;5114197;28;20039;-74
2022/11/16 01:20:09;;;;;;;42.28;19.98;;;;;;;;;;5113979;28;20143;-74
2022/11/16 01:22:36;;;;;;;37.22;19.17;;;;;;;;;;5114082;28;20059;-73
2022/11/16 01:25:04;;;;;;;40.10;19.25;;;;;;;;;;5115319;28;20032;-73
2022/11/16 01:27:32;;;;;;;35.88;18.58;;;;;;;;;;5114199;28;20040;-73
2022/11/16 01:30:02;;;;;;;38.80;19.02;;;;;;;;;;5114116;28;20385;-73
2022/11/16 01:32:31;;;;;;;42.97;19.95;;;;;;;;;;5113903;28;20067;-74
2022/11/16 01:34:58;;;;;;;38.50;19.00;;;;;;;;;;5113839;28;20039;-73
2022/11/16 01:37:29;;;;;;;35.22;18.58;;;;;;;;;;5113700;28;20043;-73
2022/11/16 01:39:56;;;;;;;39.33;19.30;;;;;;;;;;5113976;28;20405;-74
2022/11/16 01:42:26;;;;;;;36.72;19.35;;;;;;;;;;5113977;28;20509;-73
2022/11/16 01:45:03;;;;;;;40.65;19.60;;;;;;;;;;5113463;28;20097;-74
2022/11/16 01:47:31;;;;;;;38.13;18.63;;;;;;;;;;5113605;28;20050;-73
2022/11/16 01:50:08;;;;;;;38.42;18.83;;;;;;;;;;5096994;28;20446;-74
2022/11/16 01:52:39;;;;;;;39.92;18.90;;;;;;;;;;5114819;28;20036;-73
2022/11/16 01:55:07;;;;;;;37.88;19.55;;;;;;;;;;5113628;28;20048;-73
2022/11/16 01:57:47;;;;;;;33.50;18.08;;;;;;;;;;5113342;28;20393;-73
2022/11/16 02:00:15;;;;;;;41.50;19.30;;;;;;;;;;5113430;28;20051;-73
2022/11/16 02:02:54;;;;;;;36.03;17.52;;;;;;;;;;5115209;28;20035;-73
2022/11/16 02:05:51;;;;;;;40.97;18.38;;;;;;;;;;5104439;27;20514;-73
2022/11/16 02:11:13;;;;;;;39.38;19.38;;;;;;;;;;5113208;28;20165;-73
2022/11/16 02:13:47;;;;;;;40.80;18.38;;;;;;;;;;5096296;28;20040;-74
2022/11/16 02:16:30;;;;;;;40.80;18.98;;;;;;;;;;5112956;28;20044;-74
2022/11/16 02:18:57;;;;;;;40.75;19.95;;;;;;;;;;5112830;28;20049;-74
2022/11/16 02:21:38;;;;;;;43.85;19.20;;;;;;;;;;5112758;28;20075;-73
2022/11/16 02:24:15;;;;;;;39.38;20.20;;;;;;;;;;5112941;28;20051;-73
2022/11/16 02:26:43;;;;;;;41.10;20.10;;;;;;;;;;5112753;28;20044;-74
2022/11/16 02:29:29;;;;;;;43.67;21.42;;;;;;;;;;5112733;28;20089;-73
2022/11/16 02:32:02;;;;;;;42.90;20.95;;;;;;;;;;5112609;28;20622;-73
2022/11/16 02:34:44;;;;;;;42.53;20.60;;;;;;;;;;5113950;28;20042;-73
2022/11/16 02:37:14;;;;;;;43.13;20.85;;;;;;;;;;5112477;28;20439;-73
2022/11/16 02:39:43;;;;;;;44.65;21.27;;;;;;;;;;5113776;28;20071;-74
2022/11/16 02:42:14;;;;;;;45.50;22.55;;;;;;;;;;5112455;28;20131;-73
2022/11/16 02:44:44;;;;;;;46.10;21.55;;;;;;;;;;5112601;28;20068;-73
2022/11/16 02:47:16;;;;;;;48.10;22.63;;;;;;;;;;5112564;28;20450;-73
2022/11/16 02:49:47;;;;;;;56.22;23.13;;;;;;;;;;5112682;28;20127;-73
2022/11/16 02:52:15;;;;;;;50.13;22.08;;;;;;;;;;5112386;28;20051;-73
2022/11/16 02:54:42;;;;;;;47.60;23.50;;;;;;;;;;5111843;28;20535;-73
2022/11/16 02:57:11;;;;;;;47.03;22.55;;;;;;;;;;5112228;28;20093;-73
2022/11/16 02:59:46;;;;;;;46.75;22.98;;;;;;;;;;5112690;28;20426;-73
2022/11/16 03:02:23;;;;;;;49.42;21.50;;;;;;;;;;5112320;28;20061;-73
2022/11/16 03:04:56;;;;;;;44.65;22.33;;;;;;;;;;5113457;28;20043;-73
2022/11/16 03:07:26;;;;;;;49.28;22.05;;;;;;;;;;5112218;28;20043;-73
2022/11/16 03:09:56;;;;;;;49.95;22.88;;;;;;;;;;5111994;28;20515;-73
2022/11/16 03:12:25;;;;;;;48.90;22.60;;;;;;;;;;5112057;28;20097;-73
2022/11/16 03:14:58;;;;;;;45.55;21.52;;;;;;;;;;5111732;28;20044;-73
2022/11/16 03:17:30;;;;;;;45.45;21.52;;;;;;;;;;5111910;28;20051;-73
2022/11/16 03:20:01;;;;;;;41.40;20.98;;;;;;;;;;5111911;28;20071;-73
2022/11/16 03:22:38;;;;;;;44.33;21.20;;;;;;;;;;5111913;28;20183;-73
2022/11/16 03:25:06;;;;;;;39.97;20.33;;;;;;;;;;5111882;28;20375;-73
2022/11/16 03:27:37;;;;;;;37.97;19.35;;;;;;;;;;5111824;28;20054;-73
2022/11/16 03:30:22;;;;;;;39.45;19.10;;;;;;;;;;5111680;28;20044;-73
2022/11/16 03:32:53;;;;;;;38.78;19.05;;;;;;;;;;5112068;28;20049;-73
2022/11/16 03:35:26;;;;;;;35.47;18.80;;;;;;;;;;5111855;28;20142;-73
2022/11/16 03:37:56;;;;;;;35.78;18.88;;;;;;;;;;5111647;28;20046;-73
2022/11/16 03:40:27;;;;;;;37.08;18.58;;;;;;;;;;5111942;28;20559;-73
2022/11/16 03:42:56;;;;;;;37.33;18.23;;;;;;;;;;5095004;28;20067;-73
2022/11/16 03:45:23;;;;;;;34.80;17.88;;;;;;;;;;5111650;28;20080;-73
2022/11/16 03:47:52;;;;;;;38.88;17.27;;;;;;;;;;5111618;28;20097;-73
2022/11/16 03:50:20;;;;;;;37.03;17.98;;;;;;;;;;5111727;28;20492;-73
2022/11/16 03:52:48;;;;;;;37.78;18.50;;;;;;;;;;5111590;28;20089;-73
2022/11/16 03:55:16;;;;;;;39.03;18.35;;;;;;;;;;5111592;28;20044;-73
2022/11/16 03:57:44;;;;;;;40.83;18.77;;;;;;;;;;5111592;28;20493;-73
2022/11/16 04:00:13;;;;;;;38.95;17.88;;;;;;;;;;5111561;28;20047;-72
2022/11/16 04:02:41;;;;;;;38.17;18.25;;;;;;;;;;5111790;28;20389;-73
2022/11/16 04:24:49;;;;;;;39.72;18.75;;;;;;;;;;5115112;28;20044;-73
2022/11/16 04:30:04;;;;;;;37.42;18.20;;;;;;;;;;5114856;28;20067;-73
2022/11/16 04:38:09;;;;;;;42.83;19.08;;;;;;;;;;5115010;28;20104;-73
2022/11/16 04:40:37;;;;;;;42.13;19.92;;;;;;;;;;5114815;28;20043;-73
2022/11/16 04:43:05;;;;;;;39.40;19.38;;;;;;;;;;5114997;28;20043;-72
2022/11/16 04:48:26;;;;;;;36.85;18.88;;;;;;;;;;5114721;28;20044;-73
2022/11/16 04:50:55;;;;;;;43.65;19.08;;;;;;;;;;5114701;28;20401;-73
2022/11/16 04:53:25;;;;;;;38.60;19.35;;;;;;;;;;5114782;28;20039;-73
2022/11/16 04:56:22;;;;;;;42.78;19.58;;;;;;;;;;5109255;28;20051;-73
2022/11/16 04:58:50;;;;;;;42.35;19.77;;;;;;;;;;5114487;28;20063;-73
2022/11/16 05:02:06;;;;;;;46.33;21.58;;;;;;;;;;5115677;28;20035;-73
2022/11/16 05:04:06;;;;;;;39.80;19.10;;;;;;;;;;5114549;28;20055;-75
2022/11/16 05:06:34;;;;;;;41.13;20.17;;;;;;;;;;5114443;28;20044;-73
2022/11/16 05:09:02;;;;;;;48.03;20.65;;;;;;;;;;5114310;28;20051;-74
2022/11/16 05:11:29;;;;;;;37.80;19.48;;;;;;;;;;5114304;28;20044;-74
2022/11/16 05:13:58;;;;;;;45.30;20.92;;;;;;;;;;5114319;28;20398;-74
2022/11/16 05:16:27;;;;;;;42.53;22.02;;;;;;;;;;5114266;28;20451;-72
2022/11/16 05:21:41;;;;;;;45.22;20.40;;;;;;;;;;5114017;28;20392;-73
2022/11/16 05:26:55;;;;;;;46.80;21.30;;;;;;;;;;5115226;28;20039;-73
2022/11/16 05:29:23;;;;;;;45.13;20.75;;;;;;;;;;5113867;28;20106;-73
2022/11/16 05:31:50;;;;;;;45.05;21.40;;;;;;;;;;5115063;28;20031;-73
2022/11/16 05:34:18;;;;;;;47.00;21.90;;;;;;;;;;5113900;28;20035;-73
2022/11/16 05:36:45;;;;;;;42.42;20.63;;;;;;;;;;5113517;28;20493;-73
2022/11/16 05:39:13;;;;;;;45.10;21.08;;;;;;;;;;5113597;28;20074;-74
2022/11/16 05:41:41;;;;;;;45.65;21.88;;;;;;;;;;5113554;28;20068;-73
2022/11/16 05:44:09;;;;;;;46.22;21.48;;;;;;;;;;5113857;28;20195;-72
2022/11/16 05:46:37;;;;;;;45.70;21.40;;;;;;;;;;5113524;28;20423;-73
2022/11/16 05:49:08;;;;;;;42.85;21.10;;;;;;;;;;5113508;28;20043;-72
2022/11/16 05:51:36;;;;;;;48.40;21.42;;;;;;;;;;5113357;28;20504;-72
2022/11/16 05:54:04;;;;;;;48.65;21.50;;;;;;;;;;5113660;28;20043;-73
2022/11/16 05:56:32;;;;;;;49.83;21.95;;;;;;;;;;5113410;28;20512;-73
2022/11/16 05:59:00;;;;;;;44.15;21.08;;;;;;;;;;5114555;28;20557;-72
2022/11/16 06:01:28;;;;;;;45.90;21.60;;;;;;;;;;5113035;28;20050;-73
2022/11/16 06:03:59;;;;;;;44.85;21.77;;;;;;;;;;5113269;28;20382;-71
2022/11/16 06:06:27;;;;;;;46.95;22.45;;;;;;;;;;5113070;28;20043;-73
2022/11/16 06:08:56;;;;;;;43.50;20.90;;;;;;;;;;5112969;28;20482;-72
2022/11/16 06:11:26;;;;;;;43.97;20.60;;;;;;;;;;5112915;28;20431;-72
2022/11/16 06:14:00;;;;;;;48.33;21.90;;;;;;;;;;5112939;28;20035;-72
2022/11/16 06:16:28;;;;;;;41.85;21.23;;;;;;;;;;5096149;28;20545;-72
2022/11/16 06:18:55;;;;;;;45.80;20.80;;;;;;;;;;5112762;28;20062;-72
2022/11/16 06:21:23;;;;;;;46.75;20.90;;;;;;;;;;5112956;28;20039;-72
2022/11/16 06:23:52;;;;;;;43.75;20.33;;;;;;;;;;5096053;28;20390;-72
2022/11/16 06:26:21;;;;;;;42.40;21.05;;;;;;;;;;5113102;28;20044;-72
2022/11/16 06:28:49;;;;;;;44.42;21.90;;;;;;;;;;5112815;28;20100;-72
2022/11/16 06:31:16;;;;;;;42.85;21.25;;;;;;;;;;5113227;28;20043;-72
2022/11/16 06:33:45;;;;;;;45.38;21.10;;;;;;;;;;5112788;28;20039;-72
2022/11/16 06:36:20;;;;;;;43.47;20.75;;;;;;;;;;5112719;28;20040;-72
2022/11/16 06:38:49;;;;;;;44.42;20.73;;;;;;;;;;5112456;28;20501;-72
2022/11/16 06:41:18;;;;;;;41.25;20.85;;;;;;;;;;5112889;28;20476;-71
2022/11/16 06:43:48;;;;;;;42.78;20.95;;;;;;;;;;5112583;28;20071;-71
2022/11/16 06:46:19;;;;;;;46.85;20.75;;;;;;;;;;5111755;28;20036;-72
2022/11/16 06:48:47;;;;;;;41.47;20.48;;;;;;;;;;5112092;28;20078;-72
2022/11/16 06:51:15;;;;;;;47.53;22.02;;;;;;;;;;5112091;28;20039;-72
2022/11/16 06:53:42;;;;;;;43.95;22.35;;;;;;;;;;5111793;28;20043;-73
2022/11/16 06:56:12;;;;;;;44.92;22.75;;;;;;;;;;5111577;28;20122;-73
2022/11/16 06:58:43;;;;;;;42.78;21.95;;;;;;;;;;5111963;28;20047;-73
2022/11/16 07:01:13;;;;;;;42.33;21.73;;;;;;;;;;5094654;28;20043;-73
2022/11/16 07:03:42;;;;;;;44.00;21.75;;;;;;;;;;5112063;28;20043;-73
2022/11/16 07:06:12;;;;;;;42.08;21.52;;;;;;;;;;5112234;28;20044;-73
2022/11/16 07:08:42;;;;;;;41.63;20.42;;;;;;;;;;5112126;28;20044;-72
2022/11/16 07:11:11;;;;;;;43.63;21.63;;;;;;;;;;5112201;28;20044;-73
2022/11/16 07:13:38;;;;;;;43.03;22.50;;;;;;;;;;5112142;28;20046;-73
2022/11/16 07:16:09;;;;;;;47.10;22.42;;;;;;;;;;5112194;28;20436;-74
2022/11/16 07:18:42;;;;;;;48.75;24.05;;;;;;;;;;5111780;28;20570;-72
2022/11/16 07:21:11;;;;;;;45.80;23.40;;;;;;;;;;5112021;28;20568;-72
2022/11/16 07:23:38;;;;;;;44.22;23.25;;;;;;;;;;5113151;28;20492;-73
2022/11/16 07:26:09;;;;;;;47.63;23.38;;;;;;;;;;5111920;28;20054;-73
2022/11/16 07:28:46;;;;;;;47.60;24.25;;;;;;;;;;5112082;28;20044;-73
2022/11/16 07:31:18;;;;;;;45.22;23.23;;;;;;;;;;5111979;28;20043;-73
2022/11/16 07:33:46;;;;;;;50.33;24.85;;;;;;;;;;5111976;28;20078;-73
2022/11/16 07:36:32;;;;;;;46.17;23.55;;;;;;;;;;5113254;28;20435;-74
2022/11/16 07:39:00;;;;;;;43.40;21.52;;;;;;;;;;5111678;28;20056;-73
2022/11/16 07:41:28;;;;;;;38.40;21.48;;;;;;;;;;5113194;28;20044;-74
2022/11/16 07:44:10;;;;;;;45.70;23.17;;;;;;;;;;5115973;28;20050;-73
2022/11/16 07:46:41;;;;;;;42.53;21.80;;;;;;;;;;5115939;28;20044;-73
2022/11/16 07:49:16;;;;;;;39.22;21.17;;;;;;;;;;5115900;28;20135;-72
2022/11/16 07:51:49;;;;;;;39.60;21.20;;;;;;;;;;5115945;28;20062;-73
2022/11/16 07:54:31;;;;;;;41.97;22.20;;;;;;;;;;5115831;28;20097;-73
2022/11/16 07:56:58;;;;;;;39.60;22.48;;;;;;;;;;5115614;28;20046;-72
2022/11/16 07:59:27;;;;;;;43.78;23.38;;;;;;;;;;5115532;28;20043;-74
2022/11/16 08:01:55;;;;;;;42.38;22.08;;;;;;;;;;5115450;28;20043;-72
2022/11/16 08:04:23;;;;;;;45.28;23.75;;;;;;;;;;5115542;28;20517;-73
2022/11/16 08:06:50;;;;;;;43.70;23.63;;;;;;;;;;5115363;28;20047;-74
2022/11/16 08:09:19;;;;;;;44.38;22.85;;;;;;;;;;5115426;28;20046;-73
2022/11/16 08:11:50;;;;;;;48.92;24.35;;;;;;;;;;5115268;28;20505;-73
2022/11/16 08:14:18;;;;;;;44.63;23.92;;;;;;;;;;5115292;28;20043;-73
2022/11/16 08:16:48;;;;;;;46.33;23.60;;;;;;;;;;5115267;28;20061;-74
2022/11/16 08:19:16;;;;;;;46.22;24.65;;;;;;;;;;5114916;28;20070;-73
2022/11/16 08:21:44;;;;;;;46.95;24.30;;;;;;;;;;5116372;28;20080;-73
2022/11/16 08:24:13;;;;;;;49.10;25.02;;;;;;;;;;5115072;28;20047;-73
2022/11/16 08:26:42;;;;;;;50.05;23.92;;;;;;;;;;5114978;28;20043;-73
2022/11/16 08:29:14;;;;;;;44.97;24.15;;;;;;;;;;5114873;28;20040;-73
2022/11/16 08:31:46;;;;;;;46.47;26.08;;;;;;;;;;5115128;28;20112;-74
2022/11/16 08:34:18;;;;;;;46.58;24.90;;;;;;;;;;5114777;28;20044;-74
2022/11/16 08:36:49;;;;;;;42.00;24.05;;;;;;;;;;5114777;28;20048;-74
2022/11/16 08:39:19;;;;;;;47.22;24.50;;;;;;;;;;5114763;28;20043;-74
2022/11/16 08:41:46;;;;;;;45.22;24.05;;;;;;;;;;5114710;28;20062;-74
2022/11/16 08:44:14;;;;;;;40.78;23.48;;;;;;;;;;5115971;28;20046;-74
2022/11/16 08:46:45;;;;;;;40.10;21.70;;;;;;;;;;5114882;28;20067;-74
2022/11/16 08:49:42;;;;;;;43.03;22.80;;;;;;;;;;5108123;28;20503;-74
2022/11/16 08:52:17;;;;;;;46.47;23.60;;;;;;;;;;5114185;28;20044;-74
2022/11/16 08:54:46;;;;;;;41.17;22.88;;;;;;;;;;5114090;28;20032;-74
2022/11/16 08:57:15;;;;;;;52.05;28.05;;;;;;;;;;5098074;28;20459;-74
2022/11/16 08:59:44;;;;;;;51.08;28.30;;;;;;;;;;5114429;28;20051;-74
2022/11/16 09:02:13;;;;;;;48.45;26.20;;;;;;;;;;5114571;28;20044;-74
2022/11/16 09:04:41;;;;;;;43.38;24.30;;;;;;;;;;5115738;28;20047;-74
2022/11/16 09:07:09;;;;;;;48.83;24.70;;;;;;;;;;5115789;27;20039;-74
2022/11/16 09:09:36;;;;;;;49.78;24.77;;;;;;;;;;5115662;28;20047;-74
2022/11/16 09:12:04;;;;;;;46.15;24.17;;;;;;;;;;5114210;28;20436;-73
2022/11/16 09:14:32;;;;;;;45.88;23.77;;;;;;;;;;5115540;28;20102;-74
2022/11/16 09:16:59;;;;;;;50.80;25.85;;;;;;;;;;5115429;28;20042;-74
2022/11/16 09:19:27;;;;;;;41.38;22.42;;;;;;;;;;5115145;28;20092;-74
2022/11/16 09:21:54;;;;;;;50.80;24.75;;;;;;;;;;5115587;28;20059;-74
2022/11/16 09:24:22;;;;;;;48.10;24.45;;;;;;;;;;5115409;28;20515;-74
2022/11/16 09:26:49;;;;;;;47.05;24.42;;;;;;;;;;5115365;28;20051;-74
2022/11/16 09:29:16;;;;;;;48.60;24.45;;;;;;;;;;5115298;28;20063;-74
2022/11/16 09:31:44;;;;;;;42.72;24.02;;;;;;;;;;5114108;28;20047;-73
2022/11/16 09:34:12;;;;;;;40.58;22.23;;;;;;;;;;5115145;28;20089;-73
2022/11/16 09:36:39;;;;;;;41.58;23.15;;;;;;;;;;5115105;28;20481;-73
2022/11/16 09:39:07;;;;;;;39.33;22.38;;;;;;;;;;5115257;28;20130;-72
2022/11/16 09:41:57;;;;;;;38.03;22.05;;;;;;;;;;5114945;28;20046;-72
2022/11/16 09:44:31;;;;;;;38.85;23.45;;;;;;;;;;5115188;28;20401;-73
2022/11/16 09:47:00;;;;;;;37.95;21.13;;;;;;;;;;5114815;28;20043;-73
2022/11/16 09:49:33;;;;;;;30.48;18.77;;;;;;;;;;5114957;27;20121;-73
2022/11/16 09:52:02;;;;;;;37.78;20.65;;;;;;;;;;5114607;28;20067;-73
2022/11/16 09:54:32;;;;;;;37.60;22.10;;;;;;;;;;5113484;28;20069;-73
2022/11/16 09:57:01;;;;;;;41.50;22.95;;;;;;;;;;5114717;28;20157;-73
2022/11/16 09:59:41;;;;;;;39.35;23.65;;;;;;;;;;5114884;28;20478;-73
2022/11/16 10:02:44;;;;;;;38.03;21.65;;;;;;;;;;5114700;28;20040;-72
2022/11/16 10:05:11;;;;;;;42.47;24.27;;;;;;;;;;5031602;28;20483;-73
2022/11/16 10:07:47;;;;;;;45.42;24.85;;;;;;;;;;5099140;28;20080;-73
2022/11/16 10:10:21;;;;;;;46.22;24.52;;;;;;;;;;5114480;28;20047;-73
2022/11/16 10:12:51;;;;;;;43.90;24.63;;;;;;;;;;5114393;28;20035;-74
2022/11/16 10:15:37;;;;;;;40.63;24.23;;;;;;;;;;5114344;28;20096;-73
2022/11/16 10:18:11;;;;;;;45.78;23.95;;;;;;;;;;5112750;28;20047;-73
2022/11/16 10:20:54;;;;;;;39.10;23.20;;;;;;;;;;5113922;28;20099;-73
2022/11/16 10:23:24;;;;;;;50.22;26.33;;;;;;;;;;5114107;28;20039;-73
2022/11/16 10:26:12;;;;;;;43.60;25.50;;;;;;;;;;5114412;28;20039;-74
2022/11/16 10:28:42;;;;;;;41.50;22.55;;;;;;;;;;5100554;28;20080;-74
2022/11/16 10:31:30;;;;;;;43.28;22.30;;;;;;;;;;5114145;28;20489;-74
2022/11/16 10:33:58;;;;;;;40.38;21.95;;;;;;;;;;5073149;28;20052;-73
2022/11/16 10:36:26;;;;;;;34.75;20.83;;;;;;;;;;5114013;28;20130;-73
2022/11/16 10:38:59;;;;;;;38.67;22.90;;;;;;;;;;5113932;28;20044;-73
2022/11/16 10:41:39;;;;;;;36.85;22.70;;;;;;;;;;5113937;28;20039;-74
2022/11/16 10:44:21;;;;;;;40.80;23.17;;;;;;;;;;5113811;28;20423;-73
2022/11/16 10:46:55;;;;;;;38.13;22.95;;;;;;;;;;5113822;28;20036;-72
2022/11/16 10:49:41;;;;;;;43.07;23.97;;;;;;;;;;5113786;28;20046;-73
2022/11/16 10:52:09;;;;;;;39.05;23.60;;;;;;;;;;5113760;28;20280;-74
2022/11/16 10:54:36;;;;;;;38.88;23.17;;;;;;;;;;5113710;28;20515;-74
2022/11/16 10:57:12;;;;;;;43.97;26.15;;;;;;;;;;5113588;28;20105;-74
2022/11/16 10:59:45;;;;;;;40.08;23.50;;;;;;;;;;5113413;28;20050;-74
2022/11/16 11:02:25;;;;;;;43.10;25.20;;;;;;;;;;5113593;28;20089;-73
2022/11/16 11:05:15;;;;;;;39.55;22.60;;;;;;;;;;5113388;28;20047;-73
2022/11/16 11:07:49;;;;;;;40.42;23.02;;;;;;;;;;5113370;28;20043;-73
2022/11/16 11:10:27;;;;;;;37.97;23.23;;;;;;;;;;5113302;28;20039;-73
2022/11/16 11:13:09;;;;;;;41.88;23.20;;;;;;;;;;5113444;28;20042;-73
2022/11/16 11:15:41;;;;;;;40.92;24.25;;;;;;;;;;5112959;28;20451;-73
2022/11/16 11:18:23;;;;;;;41.72;24.40;;;;;;;;;;5113273;28;20035;-73
2022/11/16 11:20:57;;;;;;;42.63;23.52;;;;;;;;;;5113198;28;20040;-74
2022/11/16 11:23:25;;;;;;;41.10;23.15;;;;;;;;;;5113359;28;20505;-73
2022/11/16 11:25:54;;;;;;;44.47;24.63;;;;;;;;;;5113363;28;20040;-73
2022/11/16 11:28:22;;;;;;;43.75;24.40;;;;;;;;;;5113141;28;20063;-73
2022/11/16 11:31:04;;;;;;;40.65;24.25;;;;;;;;;;5113216;28;20074;-73
2022/11/16 11:33:34;;;;;;;46.47;24.88;;;;;;;;;;5113245;28;20100;-73
2022/11/16 11:36:06;;;;;;;45.65;26.45;;;;;;;;;;5113125;28;20129;-74
2022/11/16 11:38:34;;;;;;;46.53;26.23;;;;;;;;;;5113344;28;20040;-74
2022/11/16 11:41:04;;;;;;;43.35;26.45;;;;;;;;;;5112838;28;20138;-74
2022/11/16 11:43:32;;;;;;;40.80;25.05;;;;;;;;;;5112979;28;20036;-74
2022/11/16 11:46:15;;;;;;;40.00;23.00;;;;;;;;;;5112950;28;20050;-74
2022/11/16 11:48:51;;;;;;;43.75;25.40;;;;;;;;;;5112998;28;20074;-74
2022/11/16 11:51:27;;;;;;;39.88;23.20;;;;;;;;;;5113059;28;20036;-74
2022/11/16 11:53:58;;;;;;;50.83;26.80;;;;;;;;;;5113018;28;20039;-74
2022/11/16 11:56:29;;;;;;;40.50;23.83;;;;;;;;;;5112926;28;20047;-74
2022/11/16 11:58:56;;;;;;;40.65;23.83;;;;;;;;;;5112965;28;20389;-74
2022/11/16 12:01:39;;;;;;;43.28;25.17;;;;;;;;;;5112818;28;20090;-74
2022/11/16 12:04:25;;;;;;;40.08;23.67;;;;;;;;;;5112959;28;20036;-74
2022/11/16 12:07:01;;;;;;;48.13;28.25;;;;;;;;;;5112587;28;20042;-74
2022/11/16 12:09:34;;;;;;;45.28;26.33;;;;;;;;;;5112673;28;20039;-74
2022/11/16 12:12:20;;;;;;;41.05;23.63;;;;;;;;;;5112580;28;20048;-74
2022/11/16 12:15:06;;;;;;;46.17;24.42;;;;;;;;;;5112606;28;20461;-74
2022/11/16 12:17:52;;;;;;;45.22;26.23;;;;;;;;;;5112804;28;20366;-74
2022/11/16 12:20:19;;;;;;;42.33;25.63;;;;;;;;;;5112703;28;20040;-74
2022/11/16 12:22:50;;;;;;;38.30;23.38;;;;;;;;;;5111382;28;20046;-74
2022/11/16 12:25:17;;;;;;;42.05;24.35;;;;;;;;;;5112724;28;20076;-74
2022/11/16 12:27:48;;;;;;;39.63;24.63;;;;;;;;;;5112857;28;20074;-74
2022/11/16 12:30:17;;;;;;;41.88;23.45;;;;;;;;;;5116369;28;20401;-74
2022/11/16 12:32:57;;;;;;;40.25;23.55;;;;;;;;;;5115397;28;20035;-74
2022/11/16 12:35:24;;;;;;;42.20;23.25;;;;;;;;;;5116389;28;20036;-75
2022/11/16 12:37:52;;;;;;;39.60;24.13;;;;;;;;;;5116309;28;20118;-74
2022/11/16 12:40:19;;;;;;;40.00;22.65;;;;;;;;;;5116200;28;20115;-75
2022/11/16 12:42:59;;;;;;;38.72;22.75;;;;;;;;;;5116161;28;20063;-74
2022/11/16 12:45:41;;;;;;;42.00;25.02;;;;;;;;;;5116174;28;20058;-74
2022/11/16 12:48:27;;;;;;;49.67;25.48;;;;;;;;;;5116040;28;20035;-74
2022/11/16 12:50:55;;;;;;;40.17;23.65;;;;;;;;;;5115905;28;20048;-74
2022/11/16 12:53:54;;;;;;;41.40;23.88;;;;;;;;;;5116071;28;20040;-74
2022/11/16 12:56:22;;;;;;;40.92;24.48;;;;;;;;;;5071853;28;20056;-74
2022/11/16 12:58:55;;;;;;;40.33;23.90;;;;;;;;;;5116221;28;20115;-74
2022/11/16 13:01:29;;;;;;;40.80;24.50;;;;;;;;;;5115814;28;20545;-75
2022/11/16 13:04:09;;;;;;;42.03;23.63;;;;;;;;;;5116064;28;20093;-74
2022/11/16 13:06:43;;;;;;;43.05;24.30;;;;;;;;;;5115825;28;20048;-74
2022/11/16 13:09:16;;;;;;;37.92;22.63;;;;;;;;;;5115507;28;20071;-75
2022/11/16 13:11:51;;;;;;;40.45;24.23;;;;;;;;;;5115390;28;20498;-75
2022/11/16 13:14:20;;;;;;;45.78;25.40;;;;;;;;;;5115365;28;20047;-75
2022/11/16 13:16:48;;;;;;;42.30;25.33;;;;;;;;;;5115531;28;20063;-75
2022/11/16 13:19:16;;;;;;;43.72;24.58;;;;;;;;;;5115129;28;20553;-75
2022/11/16 13:21:47;;;;;;;41.50;24.13;;;;;;;;;;5115462;28;20043;-75
2022/11/16 13:24:40;;;;;;;43.38;25.73;;;;;;;;;;5115384;28;20042;-75
2022/11/16 13:27:24;;;;;;;46.47;26.52;;;;;;;;;;5076661;28;20062;-75
2022/11/16 13:29:54;;;;;;;48.88;28.35;;;;;;;;;;5115144;28;20397;-74
2022/11/16 13:32:24;;;;;;;47.67;28.20;;;;;;;;;;5115037;28;20093;-74
2022/11/16 13:34:52;;;;;;;44.80;24.25;;;;;;;;;;5115030;28;20503;-74
2022/11/16 13:37:38;;;;;;;44.88;25.05;;;;;;;;;;5114956;28;20119;-74
2022/11/16 13:40:05;;;;;;;43.35;24.77;;;;;;;;;;5114749;28;20419;-74
2022/11/16 13:42:34;;;;;;;44.28;25.67;;;;;;;;;;5115265;28;20067;-74
2022/11/16 13:45:21;;;;;;;43.65;24.80;;;;;;;;;;5114791;28;20504;-74
2022/11/16 13:47:52;;;;;;;44.25;26.33;;;;;;;;;;5114760;28;20454;-74
2022/11/16 13:50:31;;;;;;;45.92;26.58;;;;;;;;;;5115004;28;20047;-74
2022/11/16 13:53:05;;;;;;;47.38;28.65;;;;;;;;;;5114704;28;20047;-74
2022/11/16 13:55:57;;;;;;;50.08;27.85;;;;;;;;;;5114559;28;20040;-74
2022/11/16 13:58:26;;;;;;;53.38;30.02;;;;;;;;;;5114701;28;20078;-74
2022/11/16 14:00:59;;;;;;;63.55;32.63;;;;;;;;;;5114574;28;20106;-74
2022/11/16 14:03:37;;;;;;;67.80;36.83;;;;;;;;;;5114766;28;20043;-74
2022/11/16 14:06:24;;;;;;;65.70;34.65;;;;;;;;;;5114768;28;20047;-74
2022/11/16 14:08:56;;;;;;;59.42;32.20;;;;;;;;;;5114485;28;20036;-74
2022/11/16 14:11:32;;;;;;;53.45;29.75;;;;;;;;;;5114767;28;20050;-74
2022/11/16 14:14:04;;;;;;;57.13;30.30;;;;;;;;;;5114539;28;20047;-74
2022/11/16 14:16:41;;;;;;;54.80;28.80;;;;;;;;;;5114301;28;20044;-74
2022/11/16 14:19:28;;;;;;;52.42;27.35;;;;;;;;;;5114125;28;20052;-74
2022/11/16 14:22:07;;;;;;;51.25;28.00;;;;;;;;;;5114398;28;20032;-74
2022/11/16 14:24:39;;;;;;;55.88;29.70;;;;;;;;;;5114210;28;20047;-74
2022/11/16 14:27:09;;;;;;;53.75;28.17;;;;;;;;;;5114018;28;20072;-74
2022/11/16 14:29:43;;;;;;;53.67;30.05;;;;;;;;;;5113745;28;20474;-74
2022/11/16 14:32:20;;;;;;;52.87;29.93;;;;;;;;;;5113590;28;20092;-74
2022/11/16 14:34:48;;;;;;;58.92;32.05;;;;;;;;;;5096959;28;20292;-76
2022/11/16 14:37:36;;;;;;;60.17;32.90;;;;;;;;;;5096540;28;20107;-75
2022/11/16 14:40:07;;;;;;;60.15;31.40;;;;;;;;;;5102310;28;20101;-77
2022/11/16 14:42:46;;;;;;;61.33;34.13;;;;;;;;;;5103477;28;20059;-76
2022/11/16 14:45:35;;;;;;;70.38;36.75;;;;;;;;;;5112881;28;20031;-72
2022/11/16 14:48:05;;;;;;;73.35;36.72;;;;;;;;;;5113309;28;20393;-72
2022/11/16 14:50:33;;;;;;;77.43;37.67;;;;;;;;;;5107843;28;20039;-73
2022/11/16 14:53:08;;;;;;;73.72;38.83;;;;;;;;;;5104692;28;20047;-74
2022/11/16 14:55:40;;;;;;;79.47;42.60;;;;;;;;;;5113037;28;20119;-74
2022/11/16 14:58:08;;;;;;;66.80;36.17;;;;;;;;;;5113144;28;20043;-72
2022/11/16 15:00:36;;;;;;;74.80;41.13;;;;;;;;;;5112963;28;20447;-71
2022/11/16 15:03:04;;;;;;;78.30;40.17;;;;;;;;;;5113296;28;20449;-71
2022/11/16 15:05:36;;;;;;;70.00;36.88;;;;;;;;;;5111814;28;20039;-69
2022/11/16 15:08:07;;;;;;;72.55;35.17;;;;;;;;;;5103234;28;20482;-73
2022/11/16 15:10:35;;;;;;;65.43;33.33;;;;;;;;;;5107627;28;20058;-73
2022/11/16 15:13:02;;;;;;;65.53;33.40;;;;;;;;;;5113179;28;20213;-72
2022/11/16 15:15:31;;;;;;;66.53;34.63;;;;;;;;;;5112858;28;20478;-72
2022/11/16 15:17:58;;;;;;;63.80;34.00;;;;;;;;;;5112416;28;20107;-72
2022/11/16 15:20:27;;;;;;;70.68;35.63;;;;;;;;;;5111216;28;20073;-71
2022/11/16 15:22:56;;;;;;;72.28;35.90;;;;;;;;;;5112781;28;20450;-71